ARG1436 SABE-SAMR
Flight info
| Callsign | ARG1436 |
|---|---|
| Flight time | N/A |
| Altitude | 35000 |
| Route | SABE/31 PAL9 NEPIS W13 NIN UL405 ARMUP UT705 ESNIM UM424 BOBAP |
| Aircraft | B38M/M-SDE1FGHILORVWXY/HB1 |
Departure
| Time | N/A |
|---|---|
| Airport | Aeroparque Jorge Newbery (SABE) |
Arrival
| Time | 2026-05-08 20:07 |
|---|---|
| Airport | Suboficial Ay Santiago Germano Airport (SAMR) |
| Time | Latitude | Longitude | Altitude | Speed | Heading |
|---|---|---|---|---|---|
| 2026-05-08 19:59 | -34.48810 | -67.97765 | 8154 ft | 294 kts | 251° |
| 2026-05-08 19:59 | -34.49395 | -68.00154 | 7597 ft | 298 kts | 252° |
| 2026-05-08 19:59 | -34.49984 | -68.02565 | 7042 ft | 298 kts | 253° |
| 2026-05-08 19:59 | -34.50570 | -68.04959 | 6504 ft | 296 kts | 254° |
| 2026-05-08 20:00 | -34.51155 | -68.07356 | 5948 ft | 296 kts | 254° |
| 2026-05-08 20:00 | -34.51737 | -68.09753 | 5364 ft | 297 kts | 253° |
| 2026-05-08 20:00 | -34.52506 | -68.12066 | 4946 ft | 294 kts | 233° |
| 2026-05-08 20:00 | -34.54056 | -68.13515 | 4901 ft | 275 kts | 198° |
| 2026-05-08 20:01 | -34.55868 | -68.13706 | 4904 ft | 255 kts | 171° |
| 2026-05-08 20:01 | -34.57556 | -68.13417 | 4921 ft | 228 kts | 172° |
| 2026-05-08 20:01 | -34.59075 | -68.13305 | 4857 ft | 214 kts | 176° |
| 2026-05-08 20:01 | -34.60556 | -68.13337 | 4699 ft | 217 kts | 180° |
| 2026-05-08 20:02 | -34.62053 | -68.13510 | 4521 ft | 218 kts | 185° |
| 2026-05-08 20:02 | -34.63546 | -68.13823 | 4387 ft | 214 kts | 189° |
| 2026-05-08 20:02 | -34.64812 | -68.14773 | 4494 ft | 223 kts | 231° |
| 2026-05-08 20:02 | -34.65275 | -68.16421 | 4493 ft | 192 kts | 268° |
| 2026-05-08 20:03 | -34.65017 | -68.17907 | 4459 ft | 180 kts | 291° |
| 2026-05-08 20:03 | -34.64593 | -68.19320 | 4344 ft | 175 kts | 292° |
| 2026-05-08 20:03 | -34.64184 | -68.20748 | 4223 ft | 183 kts | 292° |
| 2026-05-08 20:03 | -34.63780 | -68.22197 | 4091 ft | 179 kts | 292° |
| 2026-05-08 20:04 | -34.63384 | -68.23615 | 3934 ft | 177 kts | 291° |
| 2026-05-08 20:04 | -34.63002 | -68.25018 | 3852 ft | 175 kts | 290° |
| 2026-05-08 20:04 | -34.62622 | -68.26422 | 3811 ft | 176 kts | 291° |
| 2026-05-08 20:04 | -34.62222 | -68.27849 | 3662 ft | 181 kts | 294° |
| 2026-05-08 20:05 | -34.61801 | -68.29293 | 3531 ft | 175 kts | 296° |
| 2026-05-08 20:05 | -34.61420 | -68.30571 | 3214 ft | 157 kts | 295° |
| 2026-05-08 20:05 | -34.61067 | -68.31869 | 3213 ft | 169 kts | 290° |
| 2026-05-08 20:05 | -34.60684 | -68.33265 | 3144 ft | 180 kts | 292° |
| 2026-05-08 20:06 | -34.60330 | -68.34770 | 3015 ft | 184 kts | 291° |
| 2026-05-08 20:06 | -34.59929 | -68.36162 | 2847 ft | 177 kts | 291° |
| 2026-05-08 20:06 | -34.59539 | -68.37566 | 2647 ft | 170 kts | 290° |
| 2026-05-08 20:06 | -34.59181 | -68.38894 | 2475 ft | 158 kts | 291° |
| 2026-05-08 20:07 | -34.58885 | -68.39974 | 2459 ft | 100 kts | 286° |
| 2026-05-08 20:07 | -34.58735 | -68.40519 | 2466 ft | 41 kts | 290° |
| 2026-05-08 20:07 | -34.58688 | -68.40710 | 2471 ft | 4 kts | 319° |
| 2026-05-08 20:07 | -34.58680 | -68.40708 | 2470 ft | 1 kts | 22° |
| 2026-05-08 20:08 | -34.58674 | -68.40636 | 2473 ft | 14 kts | 118° |
| 2026-05-08 20:08 | -34.58740 | -68.40502 | 2466 ft | 23 kts | 111° |
| 2026-05-08 20:08 | -34.58779 | -68.40360 | 2463 ft | 15 kts | 108° |
| 2026-05-08 20:08 | -34.58812 | -68.40229 | 2461 ft | 18 kts | 107° |
| 2026-05-08 20:09 | -34.58856 | -68.40080 | 2454 ft | 18 kts | 109° |
| 2026-05-08 20:09 | -34.58920 | -68.40027 | 2463 ft | 10 kts | 196° |
| 2026-05-08 20:09 | -34.58989 | -68.40055 | 2457 ft | 11 kts | 199° |
| 2026-05-08 20:09 | -34.59039 | -68.40086 | 2463 ft | 2 kts | 254° |
| 2026-05-08 20:10 | -34.59046 | -68.40102 | 2462 ft | 3 kts | 233° |
| 2026-05-08 20:10 | -34.59055 | -68.40108 | 2459 ft | 0 kts | 200° |